Terminal Aerodrome Forecast
Issued by NWS Pocatello, ID

Home | Current Version | Previous Version | Text Only | Print | Product List | Glossary On
Versions: 1 2 3 4 5 6 7 8 9 10 11 12 13 14 15 16 17 18 19 20
645
FTUS45 KPIH 210743 AAA
TAFBYI
TAF AMD
KBYI 210743Z 2108/2206 21011KT P6SM VCSH BKN050
     FM211200 21015G25KT P6SM SCT040
     FM211900 24021G31KT P6SM -SHRA VCTS SCT020 BKN040CB
     FM220100 25013G23KT P6SM VCSH SCT030 BKN090=

USA.gov is the U.S. government's official web portal to all federal, state and local government web resources and services.